createdAt,value
2022-10-06T00:02:19.211Z,13.52
2022-10-06T00:04:47.188Z,13.54
2022-10-06T00:07:15.079Z,13.54
2022-10-06T00:09:42.328Z,13.53
2022-10-06T00:12:09.815Z,13.51
2022-10-06T00:14:36.807Z,13.49
2022-10-06T00:17:03.432Z,13.43
2022-10-06T00:19:29.845Z,13.39
2022-10-06T00:21:56.230Z,13.35
2022-10-06T00:24:22.641Z,13.31
2022-10-06T00:26:49.122Z,13.26
2022-10-06T00:29:15.792Z,13.21
2022-10-06T00:31:42.200Z,13.11
2022-10-06T00:34:08.606Z,13.06
2022-10-06T00:36:35.050Z,13.03
2022-10-06T00:39:01.477Z,13.02
2022-10-06T00:41:28.505Z,12.92
2022-10-06T00:43:59.306Z,12.92
2022-10-06T00:46:47.422Z,12.88
2022-10-06T00:49:23.543Z,12.81
2022-10-06T00:52:06.979Z,12.81
2022-10-06T00:54:36.016Z,12.75
2022-10-06T00:57:04.504Z,12.73
2022-10-06T00:59:30.906Z,12.66
2022-10-06T01:02:03.777Z,12.60
2022-10-06T01:04:36.825Z,12.57
2022-10-06T01:07:04.266Z,12.53
2022-10-06T01:09:31.502Z,12.50
2022-10-06T01:12:02.106Z,12.48
2022-10-06T01:14:29.198Z,12.53
2022-10-06T01:17:07.644Z,12.62
2022-10-06T01:19:48.546Z,12.66
2022-10-06T01:22:16.411Z,12.70
2022-10-06T01:24:47.219Z,12.70
2022-10-06T01:27:15.869Z,12.69
2022-10-06T01:29:42.544Z,12.69
2022-10-06T01:32:09.501Z,12.63
2022-10-06T01:34:36.445Z,12.66
2022-10-06T01:37:02.810Z,12.64
2022-10-06T01:39:29.918Z,12.63
2022-10-06T01:41:56.470Z,12.68
2022-10-06T01:44:22.862Z,12.74
2022-10-06T01:46:50.565Z,12.84
2022-10-06T01:49:17.005Z,12.92
2022-10-06T01:51:45.849Z,12.97
2022-10-06T01:54:12.267Z,12.99
2022-10-06T01:56:38.789Z,12.98
2022-10-06T01:59:05.480Z,12.97
2022-10-06T02:01:32.082Z,12.96
2022-10-06T02:03:58.620Z,12.94
2022-10-06T02:06:26.144Z,12.94
2022-10-06T02:08:52.609Z,12.93
2022-10-06T02:11:19.915Z,12.96
2022-10-06T02:13:48.539Z,12.99
2022-10-06T02:16:15.114Z,12.99
2022-10-06T02:18:42.961Z,12.87
2022-10-06T02:21:15.420Z,13.01
2022-10-06T02:23:41.927Z,13.00
2022-10-06T02:26:08.486Z,13.01
2022-10-06T02:28:35.398Z,12.99
2022-10-06T02:31:07.224Z,12.98
2022-10-06T02:33:36.065Z,12.94
2022-10-06T02:36:05.453Z,12.89
2022-10-06T02:38:32.884Z,12.85
2022-10-06T02:41:01.914Z,12.81
2022-10-06T02:43:31.483Z,12.75
2022-10-06T02:46:12.259Z,12.71
2022-10-06T02:48:43.119Z,12.66
2022-10-06T02:51:13.346Z,12.60
2022-10-06T02:53:40.165Z,12.59
2022-10-06T02:56:21.953Z,12.56
2022-10-06T02:58:49.552Z,12.55
2022-10-06T03:01:27.272Z,12.57
2022-10-06T03:03:56.866Z,12.54
2022-10-06T03:06:25.724Z,12.57
2022-10-06T03:09:01.847Z,12.55
2022-10-06T03:11:34.734Z,12.54
2022-10-06T03:14:01.684Z,12.53
2022-10-06T03:16:38.681Z,12.53
2022-10-06T03:19:09.051Z,12.50
2022-10-06T03:21:40.061Z,12.46
2022-10-06T03:24:06.839Z,12.44
2022-10-06T03:26:38.764Z,12.42
2022-10-06T03:29:11.096Z,12.40
2022-10-06T03:31:40.979Z,12.40
2022-10-06T03:34:07.423Z,12.38
2022-10-06T03:36:35.191Z,12.40
2022-10-06T03:39:04.003Z,12.39
2022-10-06T03:41:34.509Z,12.38
2022-10-06T03:44:01.456Z,12.37
2022-10-06T03:46:34.042Z,12.36
2022-10-06T03:49:03.597Z,12.37
2022-10-06T03:51:39.080Z,12.33
2022-10-06T03:54:10.683Z,12.37
2022-10-06T03:56:40.929Z,12.39
2022-10-06T03:59:12.272Z,12.39
2022-10-06T04:01:46.281Z,12.44
2022-10-06T04:04:17.103Z,12.47
2022-10-06T04:06:46.948Z,12.46
2022-10-06T04:09:16.862Z,12.49
2022-10-06T04:11:44.760Z,12.52
2022-10-06T04:14:15.043Z,12.52
2022-10-06T04:16:46.908Z,12.56
2022-10-06T04:19:17.035Z,12.57
2022-10-06T04:21:48.186Z,12.56
2022-10-06T04:24:18.728Z,12.57
2022-10-06T04:26:48.904Z,12.54
2022-10-06T04:29:17.046Z,12.52
2022-10-06T04:31:46.101Z,12.53
2022-10-06T04:34:21.335Z,12.54
2022-10-06T04:36:48.073Z,12.58
2022-10-06T04:39:16.361Z,12.61
2022-10-06T04:41:47.245Z,12.55
2022-10-06T04:44:19.009Z,12.47
2022-10-06T04:46:46.012Z,12.38
2022-10-06T04:49:19.472Z,12.36
2022-10-06T04:51:48.873Z,12.32
2022-10-06T04:54:15.936Z,12.31
2022-10-06T04:56:42.526Z,12.33
2022-10-06T04:59:09.808Z,12.36
2022-10-06T05:01:38.889Z,12.34
2022-10-06T05:04:09.832Z,12.33
2022-10-06T05:06:39.774Z,12.26
2022-10-06T05:09:08.803Z,12.26
2022-10-06T05:11:37.352Z,12.20
2022-10-06T05:14:07.028Z,12.13
2022-10-06T05:16:38.168Z,12.09
2022-10-06T05:19:05.801Z,12.07
2022-10-06T05:21:32.774Z,12.06
2022-10-06T05:24:00.955Z,12.08
2022-10-06T05:26:30.881Z,12.12
2022-10-06T05:28:58.631Z,12.11
2022-10-06T05:31:28.268Z,12.13
2022-10-06T05:33:57.192Z,12.11
2022-10-06T05:36:28.634Z,12.12
2022-10-06T05:38:56.225Z,12.13
2022-10-06T05:41:25.113Z,12.15
2022-10-06T05:43:52.036Z,12.17
2022-10-06T05:46:25.122Z,12.20
2022-10-06T05:48:55.833Z,12.24
2022-10-06T05:51:31.116Z,12.29
2022-10-06T05:53:59.919Z,12.35
2022-10-06T05:56:31.755Z,12.40
2022-10-06T05:58:59.746Z,12.43
2022-10-06T06:01:36.239Z,12.50
2022-10-06T06:04:10.271Z,12.55
2022-10-06T06:06:43.826Z,12.59
2022-10-06T06:09:16.955Z,12.63
2022-10-06T06:11:49.732Z,12.68
2022-10-06T06:14:40.740Z,12.74
2022-10-06T06:17:07.750Z,12.76
2022-10-06T06:19:34.166Z,12.78
2022-10-06T06:22:00.791Z,12.79
2022-10-06T06:24:27.190Z,12.86
2022-10-06T06:26:53.588Z,12.90
2022-10-06T06:29:20.011Z,12.96
2022-10-06T06:31:48.725Z,13.00
2022-10-06T06:34:15.625Z,13.07
2022-10-06T06:36:46.770Z,13.17
2022-10-06T06:39:17.583Z,13.29
2022-10-06T06:41:47.092Z,13.40
2022-10-06T06:44:35.612Z,13.57
2022-10-06T06:47:05.610Z,13.67
2022-10-06T06:49:32.258Z,13.75
2022-10-06T06:52:04.674Z,13.84
2022-10-06T06:54:33.288Z,13.91
2022-10-06T06:57:04.834Z,13.97
2022-10-06T06:59:32.932Z,14.00
2022-10-06T07:02:00.935Z,14.05
2022-10-06T07:04:30.414Z,14.10
2022-10-06T07:06:59.741Z,14.15
2022-10-06T07:09:30.598Z,14.20
2022-10-06T07:12:07.114Z,14.28
2022-10-06T07:14:33.513Z,14.36
2022-10-06T07:17:19.677Z,14.40
2022-10-06T07:20:07.754Z,14.45
2022-10-06T07:22:53.637Z,14.50
2022-10-06T07:25:26.354Z,14.54
2022-10-06T07:27:59.159Z,14.56
2022-10-06T07:30:35.014Z,14.61
2022-10-06T07:33:12.005Z,14.62
2022-10-06T07:35:39.492Z,14.57
2022-10-06T07:38:07.806Z,14.56
2022-10-06T07:40:46.237Z,14.63
2022-10-06T07:43:22.672Z,14.74
2022-10-06T07:45:50.289Z,14.85
2022-10-06T07:48:23.352Z,14.93
2022-10-06T07:51:01.529Z,15.07
2022-10-06T07:53:36.011Z,15.22
2022-10-06T07:56:08.652Z,15.31
2022-10-06T07:58:44.116Z,15.46
2022-10-06T08:01:15.365Z,15.59
2022-10-06T08:03:42.773Z,15.64
2022-10-06T08:06:14.238Z,15.64
2022-10-06T08:08:41.619Z,15.61
2022-10-06T08:11:09.801Z,15.72
2022-10-06T08:13:38.046Z,15.74
2022-10-06T08:16:10.424Z,15.78
2022-10-06T08:18:46.833Z,15.82
2022-10-06T08:21:28.844Z,15.82
2022-10-06T08:23:58.054Z,15.76
2022-10-06T08:26:26.083Z,15.74
2022-10-06T08:28:55.248Z,15.73
2022-10-06T08:31:22.860Z,15.72
2022-10-06T08:33:54.130Z,15.74
2022-10-06T08:36:20.845Z,15.81
2022-10-06T08:38:50.381Z,15.86
2022-10-06T08:41:39.704Z,15.93
2022-10-06T08:44:19.479Z,15.98
2022-10-06T08:47:02.821Z,16.04
2022-10-06T08:49:39.360Z,16.15
2022-10-06T08:52:46.155Z,16.23
2022-10-06T08:55:37.398Z,16.29
2022-10-06T08:58:29.090Z,16.39
2022-10-06T09:01:15.161Z,16.46
2022-10-06T09:03:47.242Z,16.37
2022-10-06T09:06:44.809Z,16.36
2022-10-06T09:09:39.211Z,16.42
2022-10-06T09:12:25.960Z,16.43
2022-10-06T09:14:57.071Z,16.45
2022-10-06T09:17:32.071Z,16.53
2022-10-06T09:20:03.401Z,16.76
2022-10-06T09:22:32.435Z,16.89
2022-10-06T09:25:17.024Z,16.82
2022-10-06T09:27:50.546Z,16.87
2022-10-06T09:30:17.706Z,16.95
2022-10-06T09:32:47.002Z,17.14
2022-10-06T09:35:22.291Z,17.41
2022-10-06T09:38:00.107Z,17.50
2022-10-06T09:40:39.000Z,17.51
2022-10-06T09:43:25.455Z,17.56
2022-10-06T09:45:57.240Z,17.61
2022-10-06T09:48:27.108Z,17.58
2022-10-06T09:51:14.095Z,17.62
2022-10-06T09:53:42.337Z,17.63
2022-10-06T09:56:18.747Z,17.87
2022-10-06T09:58:59.202Z,17.99
2022-10-06T10:01:28.527Z,18.01
2022-10-06T10:04:19.594Z,17.94
2022-10-06T10:06:47.766Z,18.13
2022-10-06T10:09:21.320Z,18.15
2022-10-06T10:12:24.861Z,18.01
2022-10-06T10:15:13.593Z,17.86
2022-10-06T10:17:49.596Z,17.97
2022-10-06T10:20:25.119Z,18.17
2022-10-06T10:22:53.183Z,18.46
2022-10-06T10:25:44.334Z,18.70
2022-10-06T10:28:17.955Z,18.93
2022-10-06T10:30:54.660Z,18.91
2022-10-06T10:33:46.162Z,18.93
2022-10-06T10:36:27.392Z,18.90
2022-10-06T10:38:55.116Z,18.77
2022-10-06T10:41:28.805Z,18.70
2022-10-06T10:44:21.265Z,18.64
2022-10-06T10:46:52.272Z,18.67
2022-10-06T10:49:28.402Z,18.83
2022-10-06T10:52:05.300Z,18.96
2022-10-06T10:54:44.245Z,18.98
2022-10-06T10:57:16.302Z,19.12
2022-10-06T10:59:49.492Z,19.10
2022-10-06T11:02:19.417Z,19.26
2022-10-06T11:04:50.217Z,19.57
2022-10-06T11:07:38.446Z,19.91
2022-10-06T11:10:20.826Z,20.23
2022-10-06T11:13:16.192Z,20.48
2022-10-06T11:16:06.752Z,20.79
2022-10-06T11:19:18.013Z,20.91
2022-10-06T11:22:10.060Z,20.86
2022-10-06T11:24:47.878Z,20.68
2022-10-06T11:27:31.501Z,20.73
2022-10-06T11:30:07.385Z,20.66
2022-10-06T11:32:48.762Z,20.57
2022-10-06T11:35:23.674Z,20.53
2022-10-06T11:37:57.857Z,20.82
2022-10-06T11:40:51.691Z,21.05
2022-10-06T11:43:28.933Z,20.88
2022-10-06T11:46:18.917Z,20.81
2022-10-06T11:48:46.517Z,20.70
2022-10-06T11:51:25.038Z,20.60
2022-10-06T11:53:58.644Z,20.49
2022-10-06T11:56:37.518Z,20.68
2022-10-06T11:59:24.951Z,20.94
2022-10-06T12:01:53.334Z,21.19
2022-10-06T12:04:24.546Z,21.04
2022-10-06T12:06:56.321Z,20.97
2022-10-06T12:09:25.882Z,21.05
2022-10-06T12:11:54.561Z,21.29
2022-10-06T12:17:58.095Z,21.65
2022-10-06T12:20:44.961Z,21.25
2022-10-06T12:23:26.212Z,20.89
2022-10-06T12:25:59.402Z,20.50
2022-10-06T12:28:39.212Z,20.45
2022-10-06T12:31:22.798Z,20.43
2022-10-06T12:33:50.417Z,20.77
2022-10-06T12:36:28.166Z,21.27
2022-10-06T12:39:06.838Z,21.65
2022-10-06T12:41:59.567Z,21.82
2022-10-06T12:44:43.013Z,22.05
2022-10-06T12:47:37.038Z,21.76
2022-10-06T12:50:12.971Z,21.10
2022-10-06T12:52:54.262Z,20.63
2022-10-06T12:55:43.847Z,20.24
2022-10-06T12:58:26.225Z,19.95
2022-10-06T13:00:53.190Z,19.68
2022-10-06T13:03:24.755Z,19.46
2022-10-06T13:05:57.166Z,19.29
2022-10-06T13:08:32.270Z,19.10
2022-10-06T13:11:31.164Z,18.97
2022-10-06T13:14:07.801Z,18.92
2022-10-06T13:16:40.958Z,18.81
2022-10-06T13:19:17.328Z,18.73
2022-10-06T13:21:44.288Z,18.63
2022-10-06T13:24:19.277Z,18.66
2022-10-06T13:26:46.562Z,18.84
2022-10-06T13:29:19.410Z,19.13
2022-10-06T13:31:51.876Z,19.18
2022-10-06T13:34:28.700Z,19.36
2022-10-06T13:36:55.764Z,19.79
2022-10-06T13:39:24.531Z,20.07
2022-10-06T13:41:56.130Z,20.31
2022-10-06T13:44:39.618Z,20.34
2022-10-06T13:47:15.616Z,20.64
2022-10-06T13:50:00.535Z,21.23
2022-10-06T13:52:37.951Z,21.88
2022-10-06T13:55:27.185Z,22.07
2022-10-06T13:57:56.675Z,22.12
2022-10-06T14:00:32.140Z,22.26
2022-10-06T14:03:04.508Z,22.31
2022-10-06T14:05:41.767Z,21.80
2022-10-06T14:08:11.298Z,21.29
2022-10-06T14:10:40.735Z,20.90
2022-10-06T14:13:16.734Z,20.58
2022-10-06T14:15:58.341Z,20.28
2022-10-06T14:18:43.879Z,19.98
2022-10-06T14:21:17.848Z,19.86
2022-10-06T14:23:51.466Z,19.73
2022-10-06T14:26:23.098Z,19.55
2022-10-06T14:28:52.746Z,19.44
2022-10-06T14:31:24.954Z,19.35
2022-10-06T14:33:52.653Z,19.24
2022-10-06T14:36:22.599Z,19.14
2022-10-06T14:38:50.872Z,19.07
2022-10-06T14:41:24.897Z,18.98
2022-10-06T14:44:08.469Z,18.87
2022-10-06T14:46:35.733Z,18.74
2022-10-06T14:49:07.489Z,18.66
2022-10-06T14:51:37.039Z,18.62
2022-10-06T14:54:05.017Z,18.57
2022-10-06T14:56:33.470Z,18.51
2022-10-06T14:59:03.841Z,18.48
2022-10-06T15:01:31.419Z,18.52
2022-10-06T15:04:00.506Z,18.46
2022-10-06T15:06:46.611Z,18.41
2022-10-06T15:09:13.542Z,18.40
2022-10-06T15:11:40.691Z,18.44
2022-10-06T15:14:08.590Z,18.55
2022-10-06T15:16:37.389Z,18.73
2022-10-06T15:19:05.420Z,18.84
2022-10-06T15:21:33.342Z,19.81
2022-10-06T15:24:02.882Z,22.78
2022-10-06T15:26:49.028Z,25.65
2022-10-06T15:29:16.186Z,27.57
2022-10-06T15:31:44.816Z,28.24
2022-10-06T15:34:13.598Z,28.27
2022-10-06T15:36:43.137Z,28.24
2022-10-06T15:39:12.100Z,27.71
2022-10-06T15:41:40.787Z,26.46
2022-10-06T15:44:08.453Z,24.69
2022-10-06T15:46:49.672Z,23.30
2022-10-06T15:49:19.818Z,22.34
2022-10-06T15:51:51.906Z,21.66
2022-10-06T15:54:24.205Z,21.08
2022-10-06T15:56:55.189Z,20.50
2022-10-06T15:59:25.349Z,19.97
2022-10-06T16:01:56.131Z,19.61
2022-10-06T16:04:40.321Z,19.45
2022-10-06T16:07:08.772Z,19.40
2022-10-06T16:09:43.107Z,19.32
2022-10-06T16:12:12.706Z,18.95
2022-10-06T16:14:39.135Z,18.54
2022-10-06T16:17:06.989Z,18.16
2022-10-06T16:19:36.649Z,17.88
2022-10-06T16:22:04.587Z,17.60
2022-10-06T16:24:31.218Z,17.36
2022-10-06T16:26:59.729Z,17.19
2022-10-06T16:29:27.625Z,17.05
2022-10-06T16:31:54.774Z,16.92
2022-10-06T16:34:21.406Z,16.81
2022-10-06T16:36:47.804Z,16.73
2022-10-06T16:39:19.977Z,16.59
2022-10-06T16:41:47.079Z,16.46
2022-10-06T16:44:13.566Z,16.30
2022-10-06T16:46:40.176Z,16.17
2022-10-06T16:49:08.478Z,16.05
2022-10-06T16:51:37.299Z,15.96
2022-10-06T16:54:08.862Z,15.88
2022-10-06T16:56:37.849Z,15.81
2022-10-06T16:59:10.670Z,15.72
2022-10-06T17:01:37.574Z,15.67
2022-10-06T17:04:08.111Z,15.64
2022-10-06T17:06:39.292Z,15.59
2022-10-06T17:09:08.063Z,15.54
2022-10-06T17:11:36.081Z,15.48
2022-10-06T17:14:03.267Z,15.44
2022-10-06T17:16:32.843Z,15.44
2022-10-06T17:18:59.474Z,15.44
2022-10-06T17:21:45.122Z,15.45
2022-10-06T17:24:12.593Z,15.45
2022-10-06T17:26:40.943Z,15.40
2022-10-06T17:29:11.711Z,15.40
2022-10-06T17:31:40.787Z,15.38
2022-10-06T17:34:12.283Z,15.34
2022-10-06T17:36:50.639Z,15.33
2022-10-06T17:39:19.709Z,15.34
2022-10-06T17:41:47.572Z,15.34
2022-10-06T17:44:23.715Z,15.38
2022-10-06T17:46:52.995Z,15.41
2022-10-06T17:49:20.793Z,15.41
2022-10-06T17:51:48.450Z,15.41
2022-10-06T17:54:18.933Z,15.40
2022-10-06T17:56:47.336Z,15.38
2022-10-06T17:59:22.214Z,15.38
2022-10-06T18:01:49.108Z,15.38
2022-10-06T18:04:16.024Z,15.36
2022-10-06T18:06:44.073Z,15.36
2022-10-06T18:09:11.366Z,15.35
2022-10-06T18:11:39.617Z,15.35
2022-10-06T18:14:14.589Z,15.33
2022-10-06T18:16:45.277Z,15.31
2022-10-06T18:19:17.597Z,15.31
2022-10-06T18:21:45.642Z,15.30
2022-10-06T18:24:16.347Z,15.31
2022-10-06T18:26:48.070Z,15.31
2022-10-06T18:29:16.609Z,15.32
2022-10-06T18:31:43.898Z,15.32
2022-10-06T18:36:58.364Z,15.24
2022-10-06T18:39:25.354Z,15.24
2022-10-06T18:41:52.190Z,15.20
2022-10-06T18:44:39.473Z,15.19
2022-10-06T18:47:24.315Z,15.17
2022-10-06T18:49:52.822Z,15.12
2022-10-06T18:52:21.494Z,15.08
2022-10-06T18:54:48.794Z,14.97
2022-10-06T18:57:15.266Z,14.94
2022-10-06T18:59:42.383Z,14.88
2022-10-06T19:02:08.931Z,14.83
2022-10-06T19:04:35.813Z,14.78
2022-10-06T19:07:02.462Z,14.75
2022-10-06T19:09:28.865Z,14.74
2022-10-06T19:11:57.648Z,14.72
2022-10-06T19:14:34.822Z,14.65
2022-10-06T19:17:14.920Z,14.62
2022-10-06T19:19:50.879Z,14.58
2022-10-06T19:22:19.138Z,14.56
2022-10-06T19:24:48.260Z,14.52
2022-10-06T19:27:20.711Z,14.53
2022-10-06T19:29:56.289Z,14.50
2022-10-06T19:32:26.144Z,14.44
2022-10-06T19:34:53.028Z,14.41
2022-10-06T19:37:19.498Z,14.39
2022-10-06T19:39:49.949Z,14.38
2022-10-06T19:42:36.942Z,14.41
2022-10-06T19:45:05.400Z,14.41
2022-10-06T19:47:31.850Z,14.44
2022-10-06T19:50:02.069Z,14.45
2022-10-06T19:52:31.282Z,14.45
2022-10-06T19:54:57.980Z,14.46
2022-10-06T19:57:25.012Z,14.54
2022-10-06T19:59:51.423Z,14.58
2022-10-06T20:02:17.833Z,14.61
2022-10-06T20:04:45.273Z,14.64
2022-10-06T20:07:12.588Z,14.62
2022-10-06T20:09:38.981Z,14.66
2022-10-06T20:12:05.861Z,14.68
2022-10-06T20:14:32.366Z,14.70
2022-10-06T20:16:58.825Z,14.71
2022-10-06T20:19:25.388Z,14.71
2022-10-06T20:21:52.874Z,14.70
2022-10-06T20:24:22.660Z,14.70
2022-10-06T20:26:50.577Z,14.67
2022-10-06T20:29:20.528Z,14.66
2022-10-06T20:31:49.555Z,14.67
2022-10-06T20:34:18.720Z,14.68
2022-10-06T20:36:47.404Z,14.70
2022-10-06T20:39:40.050Z,14.72
2022-10-06T20:42:12.009Z,14.73
2022-10-06T20:44:42.027Z,14.73
2022-10-06T20:47:08.861Z,14.72
2022-10-06T20:49:35.252Z,14.71
2022-10-06T20:52:03.200Z,14.71
2022-10-06T20:54:34.927Z,14.71
2022-10-06T20:57:03.775Z,14.67
2022-10-06T20:59:31.097Z,14.62
2022-10-06T21:01:59.894Z,14.54
2022-10-06T21:04:30.234Z,14.51
2022-10-06T21:06:57.290Z,14.46
2022-10-06T21:09:24.639Z,14.39
2022-10-06T21:11:51.877Z,14.31
2022-10-06T21:14:18.709Z,14.25
2022-10-06T21:16:47.616Z,14.24
2022-10-06T21:19:16.811Z,14.20
2022-10-06T21:21:46.077Z,14.22
2022-10-06T21:24:12.622Z,14.18
2022-10-06T21:26:42.481Z,14.18
2022-10-06T21:29:11.568Z,14.19
2022-10-06T21:31:38.213Z,14.17
2022-10-06T21:34:05.132Z,14.18
2022-10-06T21:36:34.320Z,14.17
2022-10-06T21:39:01.729Z,14.18
2022-10-06T21:41:32.035Z,14.24
2022-10-06T21:44:02.968Z,14.28
2022-10-06T21:46:51.367Z,14.29
2022-10-06T21:49:22.689Z,14.31
2022-10-06T21:51:50.456Z,14.33
2022-10-06T21:54:17.931Z,14.30
2022-10-06T21:56:44.604Z,14.31
2022-10-06T21:59:11.802Z,14.34
2022-10-06T22:01:41.428Z,14.34
2022-10-06T22:04:08.549Z,14.36
2022-10-06T22:06:37.092Z,14.39
2022-10-06T22:09:06.313Z,14.40
2022-10-06T22:11:38.580Z,14.40
2022-10-06T22:14:08.062Z,14.42
2022-10-06T22:16:36.065Z,14.43
2022-10-06T22:19:04.818Z,14.43
2022-10-06T22:21:36.716Z,14.42
2022-10-06T22:24:08.880Z,14.43
2022-10-06T22:26:37.539Z,14.41
2022-10-06T22:29:06.239Z,14.42
2022-10-06T22:31:33.138Z,14.41
2022-10-06T22:34:02.002Z,14.42
2022-10-06T22:36:28.864Z,14.40
2022-10-06T22:38:56.498Z,14.43
2022-10-06T22:41:24.187Z,14.44
2022-10-06T22:43:58.297Z,14.44
2022-10-06T22:46:26.402Z,14.42
2022-10-06T22:48:53.485Z,14.43
2022-10-06T22:51:20.732Z,14.44
2022-10-06T22:53:55.166Z,14.43
2022-10-06T22:56:24.870Z,14.42
2022-10-06T22:58:51.402Z,14.45
2022-10-06T23:01:19.637Z,14.41
2022-10-06T23:03:47.259Z,14.42
2022-10-06T23:06:16.205Z,14.44
2022-10-06T23:08:43.083Z,14.43
2022-10-06T23:11:17.285Z,14.42
2022-10-06T23:13:44.632Z,14.38
2022-10-06T23:16:15.889Z,14.43
2022-10-06T23:18:43.402Z,14.40
2022-10-06T23:21:13.912Z,14.39
2022-10-06T23:23:40.436Z,14.35
2022-10-06T23:26:09.354Z,14.35
2022-10-06T23:28:35.945Z,14.31
2022-10-06T23:31:05.205Z,14.26
2022-10-06T23:33:32.679Z,14.26
2022-10-06T23:36:00.936Z,14.23
2022-10-06T23:38:28.064Z,14.17
2022-10-06T23:40:55.297Z,14.19
2022-10-06T23:43:22.926Z,14.17
2022-10-06T23:45:50.350Z,14.16
2022-10-06T23:48:17.260Z,14.16
2022-10-06T23:50:43.848Z,14.14
2022-10-06T23:53:10.381Z,14.12
2022-10-06T23:55:36.908Z,14.10
2022-10-06T23:58:03.417Z,14.10
